sensor_id;sensor_type;location;lat;lon;timestamp;P1;durP1;ratioP1;P2;durP2;ratioP2
9256;SDS011;4665;51.368;6.782;2023-03-16T00:02:06;3.37;;;2.20;;
9256;SDS011;4665;51.368;6.782;2023-03-16T00:04:32;3.53;;;2.50;;
9256;SDS011;4665;51.368;6.782;2023-03-16T00:07:02;3.07;;;2.50;;
9256;SDS011;4665;51.368;6.782;2023-03-16T00:09:30;2.97;;;2.10;;
9256;SDS011;4665;51.368;6.782;2023-03-16T00:11:56;3.77;;;2.23;;
9256;SDS011;4665;51.368;6.782;2023-03-16T00:14:22;3.50;;;2.33;;
9256;SDS011;4665;51.368;6.782;2023-03-16T00:16:48;4.03;;;2.57;;
9256;SDS011;4665;51.368;6.782;2023-03-16T00:19:14;4.77;;;2.17;;
9256;SDS011;4665;51.368;6.782;2023-03-16T00:21:39;2.40;;;2.23;;
9256;SDS011;4665;51.368;6.782;2023-03-16T00:24:05;4.87;;;2.20;;
9256;SDS011;4665;51.368;6.782;2023-03-16T00:26:30;2.17;;;1.97;;
9256;SDS011;4665;51.368;6.782;2023-03-16T00:28:56;3.63;;;2.47;;
9256;SDS011;4665;51.368;6.782;2023-03-16T00:31:21;3.13;;;2.30;;
9256;SDS011;4665;51.368;6.782;2023-03-16T00:33:49;4.07;;;2.17;;
9256;SDS011;4665;51.368;6.782;2023-03-16T00:36:15;3.77;;;2.40;;
9256;SDS011;4665;51.368;6.782;2023-03-16T00:38:41;3.40;;;2.30;;
9256;SDS011;4665;51.368;6.782;2023-03-16T00:41:09;3.33;;;2.40;;
9256;SDS011;4665;51.368;6.782;2023-03-16T00:43:41;3.93;;;2.23;;
9256;SDS011;4665;51.368;6.782;2023-03-16T00:46:10;2.90;;;2.23;;
9256;SDS011;4665;51.368;6.782;2023-03-16T00:48:38;2.37;;;2.20;;
9256;SDS011;4665;51.368;6.782;2023-03-16T00:51:06;2.80;;;2.20;;
9256;SDS011;4665;51.368;6.782;2023-03-16T00:53:33;2.83;;;2.63;;
9256;SDS011;4665;51.368;6.782;2023-03-16T00:56:00;3.40;;;2.07;;
9256;SDS011;4665;51.368;6.782;2023-03-16T00:58:33;3.13;;;2.00;;
9256;SDS011;4665;51.368;6.782;2023-03-16T01:01:01;4.27;;;2.23;;
9256;SDS011;4665;51.368;6.782;2023-03-16T01:03:30;2.17;;;1.97;;
9256;SDS011;4665;51.368;6.782;2023-03-16T01:05:56;3.67;;;2.23;;
9256;SDS011;4665;51.368;6.782;2023-03-16T01:08:24;2.57;;;2.30;;
9256;SDS011;4665;51.368;6.782;2023-03-16T01:10:52;4.10;;;2.50;;
9256;SDS011;4665;51.368;6.782;2023-03-16T01:13:19;2.97;;;2.63;;
9256;SDS011;4665;51.368;6.782;2023-03-16T01:15:45;2.60;;;2.40;;
9256;SDS011;4665;51.368;6.782;2023-03-16T01:18:11;5.47;;;2.50;;
9256;SDS011;4665;51.368;6.782;2023-03-16T01:20:38;2.43;;;2.23;;
9256;SDS011;4665;51.368;6.782;2023-03-16T01:23:04;4.03;;;2.30;;
9256;SDS011;4665;51.368;6.782;2023-03-16T01:25:29;2.43;;;2.23;;
9256;SDS011;4665;51.368;6.782;2023-03-16T01:27:56;3.57;;;2.57;;
9256;SDS011;4665;51.368;6.782;2023-03-16T01:30:22;2.53;;;2.33;;
9256;SDS011;4665;51.368;6.782;2023-03-16T01:32:48;2.90;;;2.37;;
9256;SDS011;4665;51.368;6.782;2023-03-16T01:35:13;4.43;;;2.50;;
9256;SDS011;4665;51.368;6.782;2023-03-16T01:37:39;2.83;;;2.40;;
9256;SDS011;4665;51.368;6.782;2023-03-16T01:40:05;2.40;;;2.20;;
9256;SDS011;4665;51.368;6.782;2023-03-16T01:42:40;4.73;;;2.60;;
9256;SDS011;4665;51.368;6.782;2023-03-16T01:48:14;3.47;;;2.63;;
9256;SDS011;4665;51.368;6.782;2023-03-16T01:50:40;2.90;;;2.17;;
9256;SDS011;4665;51.368;6.782;2023-03-16T01:53:07;2.53;;;2.27;;
9256;SDS011;4665;51.368;6.782;2023-03-16T01:55:34;3.37;;;2.50;;
9256;SDS011;4665;51.368;6.782;2023-03-16T01:58:00;2.53;;;2.33;;
9256;SDS011;4665;51.368;6.782;2023-03-16T02:00:25;3.00;;;2.27;;
9256;SDS011;4665;51.368;6.782;2023-03-16T02:02:57;6.80;;;2.60;;
9256;SDS011;4665;51.368;6.782;2023-03-16T02:05:29;2.63;;;2.43;;
9256;SDS011;4665;51.368;6.782;2023-03-16T02:07:57;3.00;;;2.23;;
9256;SDS011;4665;51.368;6.782;2023-03-16T02:10:25;2.10;;;2.00;;
9256;SDS011;4665;51.368;6.782;2023-03-16T02:12:53;3.10;;;2.10;;
9256;SDS011;4665;51.368;6.782;2023-03-16T02:15:19;2.33;;;2.10;;
9256;SDS011;4665;51.368;6.782;2023-03-16T02:17:45;2.03;;;1.90;;
9256;SDS011;4665;51.368;6.782;2023-03-16T02:23:03;3.43;;;2.00;;
9256;SDS011;4665;51.368;6.782;2023-03-16T02:25:44;2.77;;;2.10;;
9256;SDS011;4665;51.368;6.782;2023-03-16T02:31:25;3.43;;;2.10;;
9256;SDS011;4665;51.368;6.782;2023-03-16T02:33:51;2.23;;;2.07;;
9256;SDS011;4665;51.368;6.782;2023-03-16T02:36:19;3.97;;;2.27;;
9256;SDS011;4665;51.368;6.782;2023-03-16T02:38:45;2.80;;;1.90;;
9256;SDS011;4665;51.368;6.782;2023-03-16T02:41:14;2.47;;;2.27;;
9256;SDS011;4665;51.368;6.782;2023-03-16T02:43:43;2.30;;;2.10;;
9256;SDS011;4665;51.368;6.782;2023-03-16T02:46:25;2.40;;;1.90;;
9256;SDS011;4665;51.368;6.782;2023-03-16T02:51:44;3.77;;;2.20;;
9256;SDS011;4665;51.368;6.782;2023-03-16T02:54:10;2.83;;;2.33;;
9256;SDS011;4665;51.368;6.782;2023-03-16T02:56:36;3.10;;;2.50;;
9256;SDS011;4665;51.368;6.782;2023-03-16T02:59:02;2.87;;;2.30;;
9256;SDS011;4665;51.368;6.782;2023-03-16T03:01:27;1.97;;;1.83;;
9256;SDS011;4665;51.368;6.782;2023-03-16T03:03:53;4.60;;;2.60;;
9256;SDS011;4665;51.368;6.782;2023-03-16T03:06:19;3.10;;;1.93;;
9256;SDS011;4665;51.368;6.782;2023-03-16T03:08:44;1.90;;;1.80;;
9256;SDS011;4665;51.368;6.782;2023-03-16T03:11:09;2.67;;;2.10;;
9256;SDS011;4665;51.368;6.782;2023-03-16T03:13:35;2.57;;;1.97;;
9256;SDS011;4665;51.368;6.782;2023-03-16T03:16:03;2.40;;;1.90;;
9256;SDS011;4665;51.368;6.782;2023-03-16T03:18:29;3.53;;;1.97;;
9256;SDS011;4665;51.368;6.782;2023-03-16T03:20:55;2.90;;;2.03;;
9256;SDS011;4665;51.368;6.782;2023-03-16T03:23:20;2.13;;;2.00;;
9256;SDS011;4665;51.368;6.782;2023-03-16T03:25:45;3.47;;;1.83;;
9256;SDS011;4665;51.368;6.782;2023-03-16T03:28:12;3.03;;;2.20;;
9256;SDS011;4665;51.368;6.782;2023-03-16T03:30:38;2.23;;;1.90;;
9256;SDS011;4665;51.368;6.782;2023-03-16T03:33:03;2.17;;;1.97;;
9256;SDS011;4665;51.368;6.782;2023-03-16T03:35:29;2.03;;;1.90;;
9256;SDS011;4665;51.368;6.782;2023-03-16T03:37:55;3.60;;;2.10;;
9256;SDS011;4665;51.368;6.782;2023-03-16T03:40:21;3.17;;;2.13;;
9256;SDS011;4665;51.368;6.782;2023-03-16T03:42:47;2.13;;;2.00;;
9256;SDS011;4665;51.368;6.782;2023-03-16T03:45:12;3.13;;;1.90;;
9256;SDS011;4665;51.368;6.782;2023-03-16T03:47:39;2.27;;;2.17;;
9256;SDS011;4665;51.368;6.782;2023-03-16T03:50:05;2.93;;;2.20;;
9256;SDS011;4665;51.368;6.782;2023-03-16T03:52:32;3.03;;;1.83;;
9256;SDS011;4665;51.368;6.782;2023-03-16T03:54:58;2.97;;;2.30;;
9256;SDS011;4665;51.368;6.782;2023-03-16T03:57:23;3.87;;;2.17;;
9256;SDS011;4665;51.368;6.782;2023-03-16T03:59:49;3.73;;;2.60;;
9256;SDS011;4665;51.368;6.782;2023-03-16T04:02:14;3.57;;;2.53;;
9256;SDS011;4665;51.368;6.782;2023-03-16T04:04:40;2.33;;;2.13;;
9256;SDS011;4665;51.368;6.782;2023-03-16T04:07:06;2.23;;;2.03;;
9256;SDS011;4665;51.368;6.782;2023-03-16T04:09:32;2.30;;;2.10;;
9256;SDS011;4665;51.368;6.782;2023-03-16T04:12:01;2.30;;;2.13;;
9256;SDS011;4665;51.368;6.782;2023-03-16T04:14:32;2.53;;;2.30;;
9256;SDS011;4665;51.368;6.782;2023-03-16T04:16:57;2.93;;;2.10;;
9256;SDS011;4665;51.368;6.782;2023-03-16T04:19:23;5.00;;;2.37;;
9256;SDS011;4665;51.368;6.782;2023-03-16T04:21:49;2.50;;;2.30;;
9256;SDS011;4665;51.368;6.782;2023-03-16T04:24:15;2.73;;;2.33;;
9256;SDS011;4665;51.368;6.782;2023-03-16T04:26:42;2.10;;;1.90;;
9256;SDS011;4665;51.368;6.782;2023-03-16T04:29:09;2.50;;;2.30;;
9256;SDS011;4665;51.368;6.782;2023-03-16T04:31:39;2.00;;;1.90;;
9256;SDS011;4665;51.368;6.782;2023-03-16T04:34:06;3.93;;;2.30;;
9256;SDS011;4665;51.368;6.782;2023-03-16T04:36:32;3.13;;;2.00;;
9256;SDS011;4665;51.368;6.782;2023-03-16T04:38:57;2.40;;;2.20;;
9256;SDS011;4665;51.368;6.782;2023-03-16T04:41:23;2.40;;;2.20;;
9256;SDS011;4665;51.368;6.782;2023-03-16T04:43:49;3.23;;;2.20;;
9256;SDS011;4665;51.368;6.782;2023-03-16T04:46:14;3.50;;;2.33;;
9256;SDS011;4665;51.368;6.782;2023-03-16T04:48:40;2.73;;;2.47;;
9256;SDS011;4665;51.368;6.782;2023-03-16T04:51:05;2.30;;;2.17;;
9256;SDS011;4665;51.368;6.782;2023-03-16T04:53:33;2.93;;;2.57;;
9256;SDS011;4665;51.368;6.782;2023-03-16T04:55:59;3.27;;;2.33;;
9256;SDS011;4665;51.368;6.782;2023-03-16T04:58:25;4.10;;;2.30;;
9256;SDS011;4665;51.368;6.782;2023-03-16T05:00:51;2.90;;;2.30;;
9256;SDS011;4665;51.368;6.782;2023-03-16T05:03:17;3.17;;;2.87;;
9256;SDS011;4665;51.368;6.782;2023-03-16T05:05:44;3.40;;;2.33;;
9256;SDS011;4665;51.368;6.782;2023-03-16T05:08:11;3.00;;;2.53;;
9256;SDS011;4665;51.368;6.782;2023-03-16T05:10:36;3.17;;;2.47;;
9256;SDS011;4665;51.368;6.782;2023-03-16T05:13:03;4.30;;;2.60;;
9256;SDS011;4665;51.368;6.782;2023-03-16T05:15:29;2.53;;;2.30;;
9256;SDS011;4665;51.368;6.782;2023-03-16T05:17:54;2.87;;;2.20;;
9256;SDS011;4665;51.368;6.782;2023-03-16T05:20:20;3.53;;;2.50;;
9256;SDS011;4665;51.368;6.782;2023-03-16T05:22:46;2.70;;;2.50;;
9256;SDS011;4665;51.368;6.782;2023-03-16T05:25:13;3.30;;;2.80;;
9256;SDS011;4665;51.368;6.782;2023-03-16T05:27:43;2.90;;;2.67;;
9256;SDS011;4665;51.368;6.782;2023-03-16T05:30:10;3.50;;;3.20;;
9256;SDS011;4665;51.368;6.782;2023-03-16T05:32:37;4.97;;;2.90;;
9256;SDS011;4665;51.368;6.782;2023-03-16T05:35:03;3.13;;;2.80;;
9256;SDS011;4665;51.368;6.782;2023-03-16T05:37:30;4.10;;;2.90;;
9256;SDS011;4665;51.368;6.782;2023-03-16T05:39:55;4.97;;;2.70;;
9256;SDS011;4665;51.368;6.782;2023-03-16T05:42:25;3.53;;;3.00;;
9256;SDS011;4665;51.368;6.782;2023-03-16T05:44:51;6.00;;;2.80;;
9256;SDS011;4665;51.368;6.782;2023-03-16T05:47:17;4.93;;;3.63;;
9256;SDS011;4665;51.368;6.782;2023-03-16T05:49:44;4.60;;;3.13;;
9256;SDS011;4665;51.368;6.782;2023-03-16T05:52:09;3.10;;;2.80;;
9256;SDS011;4665;51.368;6.782;2023-03-16T05:54:35;3.67;;;3.13;;
9256;SDS011;4665;51.368;6.782;2023-03-16T05:57:01;3.80;;;3.37;;
9256;SDS011;4665;51.368;6.782;2023-03-16T05:59:26;4.77;;;3.20;;
9256;SDS011;4665;51.368;6.782;2023-03-16T06:01:51;4.10;;;3.43;;
9256;SDS011;4665;51.368;6.782;2023-03-16T06:04:17;3.87;;;3.20;;
9256;SDS011;4665;51.368;6.782;2023-03-16T06:06:42;5.00;;;3.47;;
9256;SDS011;4665;51.368;6.782;2023-03-16T06:09:08;3.90;;;3.50;;
9256;SDS011;4665;51.368;6.782;2023-03-16T06:11:33;3.70;;;3.30;;
9256;SDS011;4665;51.368;6.782;2023-03-16T06:13:59;3.57;;;3.27;;
9256;SDS011;4665;51.368;6.782;2023-03-16T06:16:25;3.80;;;3.50;;
9256;SDS011;4665;51.368;6.782;2023-03-16T06:18:51;5.07;;;3.80;;
9256;SDS011;4665;51.368;6.782;2023-03-16T06:21:17;4.47;;;3.90;;
9256;SDS011;4665;51.368;6.782;2023-03-16T06:23:42;4.10;;;3.80;;
9256;SDS011;4665;51.368;6.782;2023-03-16T06:26:08;3.50;;;3.20;;
9256;SDS011;4665;51.368;6.782;2023-03-16T06:28:33;6.07;;;3.80;;
9256;SDS011;4665;51.368;6.782;2023-03-16T06:30:59;3.80;;;3.40;;
9256;SDS011;4665;51.368;6.782;2023-03-16T06:33:24;5.60;;;3.80;;
9256;SDS011;4665;51.368;6.782;2023-03-16T06:35:50;3.93;;;3.53;;
9256;SDS011;4665;51.368;6.782;2023-03-16T06:38:16;6.23;;;4.03;;
9256;SDS011;4665;51.368;6.782;2023-03-16T06:43:22;4.70;;;3.50;;
9256;SDS011;4665;51.368;6.782;2023-03-16T06:45:54;4.10;;;3.47;;
9256;SDS011;4665;51.368;6.782;2023-03-16T06:48:19;4.43;;;3.40;;
9256;SDS011;4665;51.368;6.782;2023-03-16T06:51:02;4.03;;;3.63;;
9256;SDS011;4665;51.368;6.782;2023-03-16T06:53:28;4.27;;;3.50;;
9256;SDS011;4665;51.368;6.782;2023-03-16T06:56:00;3.93;;;3.53;;
9256;SDS011;4665;51.368;6.782;2023-03-16T06:58:25;4.93;;;3.60;;
9256;SDS011;4665;51.368;6.782;2023-03-16T07:01:02;4.63;;;3.83;;
9256;SDS011;4665;51.368;6.782;2023-03-16T07:03:28;5.07;;;3.60;;
9256;SDS011;4665;51.368;6.782;2023-03-16T07:08:53;5.13;;;3.80;;
9256;SDS011;4665;51.368;6.782;2023-03-16T07:17:33;3.70;;;3.40;;
9256;SDS011;4665;51.368;6.782;2023-03-16T07:19:59;3.77;;;3.20;;
9256;SDS011;4665;51.368;6.782;2023-03-16T07:22:24;3.63;;;3.33;;
9256;SDS011;4665;51.368;6.782;2023-03-16T07:28:24;5.00;;;3.53;;
9256;SDS011;4665;51.368;6.782;2023-03-16T07:30:49;4.33;;;3.47;;
9256;SDS011;4665;51.368;6.782;2023-03-16T07:33:31;3.63;;;3.33;;
9256;SDS011;4665;51.368;6.782;2023-03-16T07:35:57;3.40;;;3.10;;
9256;SDS011;4665;51.368;6.782;2023-03-16T07:38:23;5.53;;;3.60;;
9256;SDS011;4665;51.368;6.782;2023-03-16T07:40:49;3.60;;;3.30;;
9256;SDS011;4665;51.368;6.782;2023-03-16T07:43:16;3.90;;;3.50;;
9256;SDS011;4665;51.368;6.782;2023-03-16T07:45:46;3.20;;;2.90;;
9256;SDS011;4665;51.368;6.782;2023-03-16T07:48:13;3.63;;;3.20;;
9256;SDS011;4665;51.368;6.782;2023-03-16T07:50:39;3.40;;;3.10;;
9256;SDS011;4665;51.368;6.782;2023-03-16T07:53:05;4.10;;;3.20;;
9256;SDS011;4665;51.368;6.782;2023-03-16T07:55:31;6.87;;;3.50;;
9256;SDS011;4665;51.368;6.782;2023-03-16T07:58:00;3.93;;;3.23;;
9256;SDS011;4665;51.368;6.782;2023-03-16T08:00:26;3.50;;;3.20;;
9256;SDS011;4665;51.368;6.782;2023-03-16T08:02:58;3.33;;;3.00;;
9256;SDS011;4665;51.368;6.782;2023-03-16T08:05:27;4.17;;;3.77;;
9256;SDS011;4665;51.368;6.782;2023-03-16T08:07:53;5.43;;;3.43;;
9256;SDS011;4665;51.368;6.782;2023-03-16T08:10:20;5.80;;;3.07;;
9256;SDS011;4665;51.368;6.782;2023-03-16T08:12:46;4.97;;;3.30;;
9256;SDS011;4665;51.368;6.782;2023-03-16T08:15:11;4.67;;;3.83;;
9256;SDS011;4665;51.368;6.782;2023-03-16T08:17:37;3.87;;;3.47;;
9256;SDS011;4665;51.368;6.782;2023-03-16T08:20:05;3.90;;;3.50;;
9256;SDS011;4665;51.368;6.782;2023-03-16T08:22:37;3.33;;;3.03;;
9256;SDS011;4665;51.368;6.782;2023-03-16T08:25:03;3.97;;;3.63;;
9256;SDS011;4665;51.368;6.782;2023-03-16T08:27:35;3.87;;;3.10;;
9256;SDS011;4665;51.368;6.782;2023-03-16T08:30:03;3.40;;;3.10;;
9256;SDS011;4665;51.368;6.782;2023-03-16T08:32:31;4.33;;;3.40;;
9256;SDS011;4665;51.368;6.782;2023-03-16T08:34:57;4.73;;;3.40;;
9256;SDS011;4665;51.368;6.782;2023-03-16T08:37:24;4.00;;;3.33;;
9256;SDS011;4665;51.368;6.782;2023-03-16T08:39:51;3.67;;;3.27;;
9256;SDS011;4665;51.368;6.782;2023-03-16T08:42:17;4.03;;;3.63;;
9256;SDS011;4665;51.368;6.782;2023-03-16T08:44:43;4.47;;;3.90;;
9256;SDS011;4665;51.368;6.782;2023-03-16T08:47:09;4.60;;;3.37;;
9256;SDS011;4665;51.368;6.782;2023-03-16T08:49:36;3.50;;;3.20;;
9256;SDS011;4665;51.368;6.782;2023-03-16T08:52:02;3.70;;;3.33;;
9256;SDS011;4665;51.368;6.782;2023-03-16T08:54:29;7.77;;;3.57;;
9256;SDS011;4665;51.368;6.782;2023-03-16T08:56:56;3.73;;;3.20;;
9256;SDS011;4665;51.368;6.782;2023-03-16T08:59:21;4.10;;;3.20;;
9256;SDS011;4665;51.368;6.782;2023-03-16T09:01:47;3.80;;;3.50;;
9256;SDS011;4665;51.368;6.782;2023-03-16T09:04:13;4.00;;;3.60;;
9256;SDS011;4665;51.368;6.782;2023-03-16T09:06:38;4.00;;;3.70;;
9256;SDS011;4665;51.368;6.782;2023-03-16T09:09:05;3.70;;;3.33;;
9256;SDS011;4665;51.368;6.782;2023-03-16T09:11:33;3.83;;;3.53;;
9256;SDS011;4665;51.368;6.782;2023-03-16T09:13:59;4.27;;;3.87;;
9256;SDS011;4665;51.368;6.782;2023-03-16T09:16:25;4.00;;;3.53;;
9256;SDS011;4665;51.368;6.782;2023-03-16T09:18:52;3.80;;;3.50;;
9256;SDS011;4665;51.368;6.782;2023-03-16T09:21:19;4.90;;;3.50;;
9256;SDS011;4665;51.368;6.782;2023-03-16T09:23:45;4.53;;;3.93;;
9256;SDS011;4665;51.368;6.782;2023-03-16T09:26:11;5.43;;;3.60;;
9256;SDS011;4665;51.368;6.782;2023-03-16T09:28:37;4.77;;;3.50;;
9256;SDS011;4665;51.368;6.782;2023-03-16T09:31:06;4.03;;;3.63;;
9256;SDS011;4665;51.368;6.782;2023-03-16T09:33:33;7.07;;;4.00;;
9256;SDS011;4665;51.368;6.782;2023-03-16T09:35:59;3.53;;;3.30;;
9256;SDS011;4665;51.368;6.782;2023-03-16T09:38:25;3.37;;;3.10;;
9256;SDS011;4665;51.368;6.782;2023-03-16T09:40:59;3.83;;;3.47;;
9256;SDS011;4665;51.368;6.782;2023-03-16T09:46:24;4.30;;;3.57;;
9256;SDS011;4665;51.368;6.782;2023-03-16T09:48:53;4.03;;;3.67;;
9256;SDS011;4665;51.368;6.782;2023-03-16T09:51:35;5.30;;;3.60;;
9256;SDS011;4665;51.368;6.782;2023-03-16T09:54:03;4.40;;;3.60;;
9256;SDS011;4665;51.368;6.782;2023-03-16T09:56:39;4.40;;;3.43;;
9256;SDS011;4665;51.368;6.782;2023-03-16T09:59:11;4.03;;;3.67;;
9256;SDS011;4665;51.368;6.782;2023-03-16T10:01:45;4.33;;;3.73;;
9256;SDS011;4665;51.368;6.782;2023-03-16T10:07:18;3.93;;;3.30;;
9256;SDS011;4665;51.368;6.782;2023-03-16T10:12:36;4.37;;;3.57;;
9256;SDS011;4665;51.368;6.782;2023-03-16T10:15:09;3.57;;;3.27;;
9256;SDS011;4665;51.368;6.782;2023-03-16T10:17:47;4.43;;;3.37;;
9256;SDS011;4665;51.368;6.782;2023-03-16T10:20:31;3.90;;;3.60;;
9256;SDS011;4665;51.368;6.782;2023-03-16T10:22:58;3.37;;;3.07;;
9256;SDS011;4665;51.368;6.782;2023-03-16T10:28:16;4.33;;;3.37;;
9256;SDS011;4665;51.368;6.782;2023-03-16T10:30:43;3.47;;;3.17;;
9256;SDS011;4665;51.368;6.782;2023-03-16T10:33:24;4.00;;;3.70;;
9256;SDS011;4665;51.368;6.782;2023-03-16T10:38:41;6.00;;;3.27;;
9256;SDS011;4665;51.368;6.782;2023-03-16T10:43:52;5.70;;;3.70;;
9256;SDS011;4665;51.368;6.782;2023-03-16T10:49:04;3.47;;;3.17;;
9256;SDS011;4665;51.368;6.782;2023-03-16T10:51:53;4.77;;;3.70;;
9256;SDS011;4665;51.368;6.782;2023-03-16T10:54:59;3.90;;;3.50;;
9256;SDS011;4665;51.368;6.782;2023-03-16T10:58:01;3.57;;;3.27;;
9256;SDS011;4665;51.368;6.782;2023-03-16T11:00:29;3.90;;;3.60;;
9256;SDS011;4665;51.368;6.782;2023-03-16T11:05:57;4.23;;;3.60;;
9256;SDS011;4665;51.368;6.782;2023-03-16T11:08:24;5.13;;;3.80;;
9256;SDS011;4665;51.368;6.782;2023-03-16T11:10:56;3.87;;;3.57;;
9256;SDS011;4665;51.368;6.782;2023-03-16T11:13:24;4.43;;;3.30;;
9256;SDS011;4665;51.368;6.782;2023-03-16T11:18:47;4.97;;;3.13;;
9256;SDS011;4665;51.368;6.782;2023-03-16T11:24:37;3.53;;;2.80;;
9256;SDS011;4665;51.368;6.782;2023-03-16T11:26:59;4.30;;;2.93;;
9256;SDS011;4665;51.368;6.782;2023-03-16T11:32:44;4.70;;;3.10;;
9256;SDS011;4665;51.368;6.782;2023-03-16T11:34:54;4.33;;;2.90;;
9256;SDS011;4665;51.368;6.782;2023-03-16T11:48:31;3.13;;;2.67;;
9256;SDS011;4665;51.368;6.782;2023-03-16T11:53:50;3.30;;;2.80;;
9256;SDS011;4665;51.368;6.782;2023-03-16T12:07:36;2.80;;;2.37;;
9256;SDS011;4665;51.368;6.782;2023-03-16T12:12:56;2.27;;;2.17;;
9256;SDS011;4665;51.368;6.782;2023-03-16T12:15:49;2.77;;;2.37;;
9256;SDS011;4665;51.368;6.782;2023-03-16T12:20:49;2.93;;;2.67;;
9256;SDS011;4665;51.368;6.782;2023-03-16T12:26:13;2.53;;;2.20;;
9256;SDS011;4665;51.368;6.782;2023-03-16T12:28:39;4.77;;;2.20;;
9256;SDS011;4665;51.368;6.782;2023-03-16T12:31:28;3.13;;;2.50;;
9256;SDS011;4665;51.368;6.782;2023-03-16T12:39:50;2.43;;;2.23;;
9256;SDS011;4665;51.368;6.782;2023-03-16T12:48:22;2.50;;;2.27;;
9256;SDS011;4665;51.368;6.782;2023-03-16T12:50:55;2.00;;;1.80;;
9256;SDS011;4665;51.368;6.782;2023-03-16T12:55:52;3.47;;;1.93;;
9256;SDS011;4665;51.368;6.782;2023-03-16T12:58:20;2.97;;;2.17;;
9256;SDS011;4665;51.368;6.782;2023-03-16T13:00:53;2.70;;;2.27;;
9256;SDS011;4665;51.368;6.782;2023-03-16T13:03:21;2.90;;;2.17;;
9256;SDS011;4665;51.368;6.782;2023-03-16T13:05:53;3.97;;;2.50;;
9256;SDS011;4665;51.368;6.782;2023-03-16T13:08:21;2.27;;;2.03;;
9256;SDS011;4665;51.368;6.782;2023-03-16T13:13:48;2.10;;;1.97;;
9256;SDS011;4665;51.368;6.782;2023-03-16T13:16:33;5.77;;;1.97;;
9256;SDS011;4665;51.368;6.782;2023-03-16T13:19:16;1.90;;;1.80;;
9256;SDS011;4665;51.368;6.782;2023-03-16T13:21:59;2.80;;;2.00;;
9256;SDS011;4665;51.368;6.782;2023-03-16T13:24:37;2.27;;;1.87;;
9256;SDS011;4665;51.368;6.782;2023-03-16T13:27:17;3.90;;;2.10;;
9256;SDS011;4665;51.368;6.782;2023-03-16T13:29:52;2.30;;;2.10;;
9256;SDS011;4665;51.368;6.782;2023-03-16T13:32:23;3.07;;;2.00;;
9256;SDS011;4665;51.368;6.782;2023-03-16T13:34:52;2.37;;;2.13;;
9256;SDS011;4665;51.368;6.782;2023-03-16T13:37:22;4.47;;;1.83;;
9256;SDS011;4665;51.368;6.782;2023-03-16T13:39:53;2.30;;;1.90;;
9256;SDS011;4665;51.368;6.782;2023-03-16T13:42:22;1.80;;;1.70;;
9256;SDS011;4665;51.368;6.782;2023-03-16T13:44:52;2.17;;;1.67;;
9256;SDS011;4665;51.368;6.782;2023-03-16T13:47:21;3.27;;;1.97;;
9256;SDS011;4665;51.368;6.782;2023-03-16T13:49:47;2.80;;;1.80;;
9256;SDS011;4665;51.368;6.782;2023-03-16T13:52:30;1.73;;;1.63;;
9256;SDS011;4665;51.368;6.782;2023-03-16T13:54:59;1.70;;;1.60;;
9256;SDS011;4665;51.368;6.782;2023-03-16T13:57:27;5.67;;;1.90;;
9256;SDS011;4665;51.368;6.782;2023-03-16T14:00:16;2.27;;;1.70;;
9256;SDS011;4665;51.368;6.782;2023-03-16T14:02:44;3.47;;;1.97;;
9256;SDS011;4665;51.368;6.782;2023-03-16T14:05:15;1.50;;;1.40;;
9256;SDS011;4665;51.368;6.782;2023-03-16T14:07:47;1.90;;;1.80;;
9256;SDS011;4665;51.368;6.782;2023-03-16T14:10:15;3.47;;;1.80;;
9256;SDS011;4665;51.368;6.782;2023-03-16T14:12:54;4.90;;;1.50;;
9256;SDS011;4665;51.368;6.782;2023-03-16T14:15:24;3.17;;;1.80;;
9256;SDS011;4665;51.368;6.782;2023-03-16T14:17:51;5.57;;;2.23;;
9256;SDS011;4665;51.368;6.782;2023-03-16T14:20:21;2.73;;;1.87;;
9256;SDS011;4665;51.368;6.782;2023-03-16T14:22:50;4.33;;;1.63;;
9256;SDS011;4665;51.368;6.782;2023-03-16T14:25:21;2.70;;;1.80;;
9256;SDS011;4665;51.368;6.782;2023-03-16T14:27:56;2.00;;;1.80;;
9256;SDS011;4665;51.368;6.782;2023-03-16T14:30:27;4.53;;;1.50;;
9256;SDS011;4665;51.368;6.782;2023-03-16T14:33:04;2.83;;;1.57;;
9256;SDS011;4665;51.368;6.782;2023-03-16T14:38:37;2.03;;;1.67;;
9256;SDS011;4665;51.368;6.782;2023-03-16T14:43:44;1.83;;;1.47;;
9256;SDS011;4665;51.368;6.782;2023-03-16T14:46:16;1.97;;;1.57;;
9256;SDS011;4665;51.368;6.782;2023-03-16T14:49:05;1.80;;;1.50;;
9256;SDS011;4665;51.368;6.782;2023-03-16T14:51:40;1.53;;;1.43;;
9256;SDS011;4665;51.368;6.782;2023-03-16T14:54:13;3.10;;;1.60;;
9256;SDS011;4665;51.368;6.782;2023-03-16T14:56:41;1.60;;;1.40;;
9256;SDS011;4665;51.368;6.782;2023-03-16T14:59:10;1.57;;;1.47;;
9256;SDS011;4665;51.368;6.782;2023-03-16T15:01:36;1.97;;;1.60;;
9256;SDS011;4665;51.368;6.782;2023-03-16T15:04:02;1.60;;;1.50;;
9256;SDS011;4665;51.368;6.782;2023-03-16T15:06:28;4.07;;;1.60;;
9256;SDS011;4665;51.368;6.782;2023-03-16T15:08:56;1.77;;;1.53;;
9256;SDS011;4665;51.368;6.782;2023-03-16T15:11:21;3.30;;;1.90;;
9256;SDS011;4665;51.368;6.782;2023-03-16T15:13:49;1.57;;;1.40;;
9256;SDS011;4665;51.368;6.782;2023-03-16T15:16:15;1.57;;;1.30;;
9256;SDS011;4665;51.368;6.782;2023-03-16T15:18:41;2.93;;;1.67;;
9256;SDS011;4665;51.368;6.782;2023-03-16T15:21:14;1.77;;;1.50;;
9256;SDS011;4665;51.368;6.782;2023-03-16T15:23:42;1.63;;;1.53;;
9256;SDS011;4665;51.368;6.782;2023-03-16T15:26:15;2.57;;;1.50;;
9256;SDS011;4665;51.368;6.782;2023-03-16T15:28:45;2.23;;;1.90;;
9256;SDS011;4665;51.368;6.782;2023-03-16T15:31:11;1.83;;;1.70;;
9256;SDS011;4665;51.368;6.782;2023-03-16T15:33:38;2.03;;;1.83;;
9256;SDS011;4665;51.368;6.782;2023-03-16T15:36:14;1.70;;;1.60;;
9256;SDS011;4665;51.368;6.782;2023-03-16T15:38:49;1.50;;;1.40;;
9256;SDS011;4665;51.368;6.782;2023-03-16T15:41:17;2.77;;;1.53;;
9256;SDS011;4665;51.368;6.782;2023-03-16T15:43:43;2.23;;;1.80;;
9256;SDS011;4665;51.368;6.782;2023-03-16T15:46:09;1.57;;;1.47;;
9256;SDS011;4665;51.368;6.782;2023-03-16T15:48:36;1.50;;;1.40;;
9256;SDS011;4665;51.368;6.782;2023-03-16T15:51:03;2.03;;;1.60;;
9256;SDS011;4665;51.368;6.782;2023-03-16T15:53:34;2.73;;;1.60;;
9256;SDS011;4665;51.368;6.782;2023-03-16T15:56:08;2.20;;;1.53;;
9256;SDS011;4665;51.368;6.782;2023-03-16T15:58:36;1.67;;;1.47;;
9256;SDS011;4665;51.368;6.782;2023-03-16T16:01:04;1.53;;;1.43;;
9256;SDS011;4665;51.368;6.782;2023-03-16T16:03:32;1.50;;;1.40;;
9256;SDS011;4665;51.368;6.782;2023-03-16T16:05:58;2.00;;;1.60;;
9256;SDS011;4665;51.368;6.782;2023-03-16T16:08:24;2.03;;;1.53;;
9256;SDS011;4665;51.368;6.782;2023-03-16T16:10:49;1.90;;;1.40;;
9256;SDS011;4665;51.368;6.782;2023-03-16T16:13:18;1.73;;;1.40;;
9256;SDS011;4665;51.368;6.782;2023-03-16T16:15:44;2.07;;;1.50;;
9256;SDS011;4665;51.368;6.782;2023-03-16T16:21:00;3.37;;;1.70;;
9256;SDS011;4665;51.368;6.782;2023-03-16T16:23:27;1.60;;;1.30;;
9256;SDS011;4665;51.368;6.782;2023-03-16T16:25:56;4.00;;;1.70;;
9256;SDS011;4665;51.368;6.782;2023-03-16T16:28:27;2.30;;;1.63;;
9256;SDS011;4665;51.368;6.782;2023-03-16T16:30:55;2.50;;;1.60;;
9256;SDS011;4665;51.368;6.782;2023-03-16T16:33:25;1.80;;;1.70;;
9256;SDS011;4665;51.368;6.782;2023-03-16T16:35:54;2.13;;;1.57;;
9256;SDS011;4665;51.368;6.782;2023-03-16T16:38:21;2.93;;;1.50;;
9256;SDS011;4665;51.368;6.782;2023-03-16T16:40:48;2.33;;;1.87;;
9256;SDS011;4665;51.368;6.782;2023-03-16T16:45:56;1.47;;;1.43;;
9256;SDS011;4665;51.368;6.782;2023-03-16T16:48:35;3.60;;;1.90;;
9256;SDS011;4665;51.368;6.782;2023-03-16T16:51:03;1.83;;;1.73;;
9256;SDS011;4665;51.368;6.782;2023-03-16T16:53:33;1.80;;;1.70;;
9256;SDS011;4665;51.368;6.782;2023-03-16T16:56:00;1.57;;;1.50;;
9256;SDS011;4665;51.368;6.782;2023-03-16T16:58:26;2.13;;;1.87;;
9256;SDS011;4665;51.368;6.782;2023-03-16T17:00:53;7.03;;;2.00;;
9256;SDS011;4665;51.368;6.782;2023-03-16T17:03:24;1.80;;;1.70;;
9256;SDS011;4665;51.368;6.782;2023-03-16T17:05:53;2.43;;;2.23;;
9256;SDS011;4665;51.368;6.782;2023-03-16T17:08:20;2.40;;;2.20;;
9256;SDS011;4665;51.368;6.782;2023-03-16T17:10:46;2.80;;;2.20;;
9256;SDS011;4665;51.368;6.782;2023-03-16T17:13:21;2.07;;;1.90;;
9256;SDS011;4665;51.368;6.782;2023-03-16T17:15:51;3.23;;;2.00;;
9256;SDS011;4665;51.368;6.782;2023-03-16T17:18:17;3.00;;;2.37;;
9256;SDS011;4665;51.368;6.782;2023-03-16T17:20:43;2.00;;;1.90;;
9256;SDS011;4665;51.368;6.782;2023-03-16T17:23:29;2.33;;;2.13;;
9256;SDS011;4665;51.368;6.782;2023-03-16T17:25:58;1.93;;;1.70;;